CheckWX is a tool to help pilots better visualize weather data.  It is not intended as a substitute for an official pre-flight weather briefing.

15:13:23 UTC

KSJC METAR
Norman Y Mineta San Jose International Airport
San Jose, California, USA
Current

20 mins ago

KSJC 261453Z 31006KT 10SM FEW011 SCT028 BKN037 13/09 A2983 RMK AO2 SLP101 T01280089 53012
Observed
May-26 @ 14:53 UTC
Wind
  • 310° at 6 KTS
Visibility
10 SM
Flight Rules
VFR
Cloud Levels
  • Few at 1,100' AGL
  • Scattered at 2,800' AGL
  • Broken at 3,700' AGL
Temperature
13°C / 55°F
Dewpoint
C / 48°F
Humidity
77%
Altimeter
29.83" Hg
Pressure
1010.12 hPa
Previous

1 hour ago

KSJC 261353Z 29009KT 10SM FEW010 SCT030 BKN043 12/09 A2981 RMK AO2 SLP094 T01170089
Observed
May-26 @ 13:53 UTC
Wind
  • 290° at 9 KTS
Visibility
10 SM
Flight Rules
VFR
Cloud Levels
  • Few at 1,000' AGL
  • Scattered at 3,000' AGL
  • Broken at 4,300' AGL
Temperature
12°C / 54°F
Dewpoint
C / 48°F
Humidity
82%
Altimeter
29.81" Hg
Pressure
1009.52 hPa
Previous

2 hours ago

KSJC 261253Z 27007KT 10SM FEW012 SCT030 BKN110 12/08 A2980 RMK AO2 SLP089 T01170083
Observed
May-26 @ 12:53 UTC
Wind
  • 270° at 7 KTS
Visibility
10 SM
Flight Rules
VFR
Cloud Levels
  • Few at 1,200' AGL
  • Scattered at 3,000' AGL
  • Broken at 11,000' AGL
Temperature
12°C / 54°F
Dewpoint
C / 46°F
Humidity
77%
Altimeter
29.8" Hg
Pressure
1009.12 hPa